Time;durP1;ratioP1;P1;durP2;ratioP2;P2;SDS_P1;SDS_P2;PMS_P1;PMS_P2;Temp;Humidity;BMP_temperature;BMP_pressure;BME280_temperature;BME280_humidity;BME280_pressure;Samples;Min_cycle;Max_cycle;Signal;HPM_P1;HPM_P2
2023/09/28 00:02:48;;;;;;;8.40;6.13;;;;;;;16.29;100.00;99833.03;12221100;19;20002;-83
2023/09/28 00:06:50;;;;;;;10.05;7.47;;;;;;;16.31;100.00;99826.06;12216568;19;20040;-83
2023/09/28 00:10:51;;;;;;;11.40;6.93;;;;;;;16.32;100.00;99830.50;12243768;19;20015;-83
2023/09/28 00:14:53;;;;;;;13.25;8.18;;;;;;;16.35;100.00;99829.94;12217173;19;20015;-83
2023/09/28 00:18:55;;;;;;;14.73;8.87;;;;;;;16.36;100.00;99826.06;12221032;19;20058;-83
2023/09/28 00:22:57;;;;;;;13.93;9.27;;;;;;;16.36;100.00;99814.09;12207902;19;20470;-82
2023/09/28 00:26:59;;;;;;;15.20;8.93;;;;;;;16.34;100.00;99805.22;12180999;19;20007;-82
2023/09/28 00:31:04;;;;;;;12.03;7.80;;;;;;;16.35;100.00;99826.31;12211095;19;20002;-82
2023/09/28 00:35:07;;;;;;;13.20;8.48;;;;;;;16.31;100.00;99823.28;12203957;19;20018;-83
2023/09/28 00:39:09;;;;;;;15.07;7.63;;;;;;;16.26;100.00;99845.56;12150722;19;20015;-83
2023/09/28 00:43:11;;;;;;;12.70;7.60;;;;;;;16.25;100.00;99837.53;12179990;19;20006;-82
2023/09/28 00:47:14;;;;;;;10.30;7.45;;;;;;;16.22;100.00;99825.03;12199972;19;20010;-82
2023/09/28 00:51:17;;;;;;;13.63;8.90;;;;;;;16.21;100.00;99833.63;12161190;19;20013;-82
2023/09/28 00:55:20;;;;;;;14.55;9.43;;;;;;;16.21;100.00;99828.06;12196116;19;20003;-82
2023/09/28 00:59:22;;;;;;;;;;;;;;;16.22;100.00;99824.19;12200251;19;20077;-82
2023/09/28 01:03:27;;;;;;;15.48;8.73;;;;;;;16.30;100.00;99804.97;12182084;19;19910;-83
2023/09/28 01:07:30;;;;;;;13.98;8.60;;;;;;;16.37;100.00;99790.72;12191300;19;20107;-83
2023/09/28 01:11:31;;;;;;;14.02;8.75;;;;;;;16.41;100.00;99795.41;12204227;19;20504;-82
2023/09/28 01:15:35;;;;;;;13.27;8.82;;;;;;;16.50;100.00;99792.00;12178035;19;20066;-83
2023/09/28 01:19:38;;;;;;;16.25;6.93;;;;;;;16.60;100.00;99811.44;12200361;19;20006;-82
2023/09/28 01:23:40;;;;;;;9.93;7.47;;;;;;;16.67;100.00;99814.69;12202362;19;20010;-82
2023/09/28 01:27:51;;;;;;;10.18;7.50;;;;;;;16.69;100.00;99814.41;12180549;19;20006;-82
2023/09/28 01:31:53;;;;;;;12.25;7.30;;;;;;;16.68;100.00;99810.78;12212613;19;20019;-82
2023/09/28 01:35:55;;;;;;;10.57;7.10;;;;;;;16.63;100.00;99813.63;12187753;19;20011;-82
2023/09/28 01:39:57;;;;;;;11.15;7.57;;;;;;;16.66;100.00;99806.63;12212889;19;20457;-82
2023/09/28 01:43:58;;;;;;;11.40;7.03;;;;;;;16.66;100.00;99812.19;12215485;19;20002;-82
2023/09/28 01:48:03;;;;;;;10.82;7.07;;;;;;;16.64;100.00;99820.84;12180946;19;20023;-82
2023/09/28 01:52:04;;;;;;;12.02;7.03;;;;;;;16.62;100.00;99834.19;12198531;19;20030;-82
2023/09/28 01:56:07;;;;;;;10.07;6.88;;;;;;;16.63;100.00;99824.75;12198956;19;20019;-81
2023/09/28 02:00:18;;;;;;;11.43;8.02;;;;;;;16.63;100.00;99833.09;12181878;19;20082;-81
2023/09/28 02:04:20;;;;;;;20.90;10.18;;;;;;;16.58;100.00;99839.53;12201631;19;20086;-81
2023/09/28 02:08:22;;;;;;;13.23;9.03;;;;;;;16.54;100.00;99841.22;12201840;19;20014;-82
2023/09/28 02:12:26;;;;;;;12.65;8.88;;;;;;;16.48;100.00;99833.19;12181507;19;20073;-82
2023/09/28 02:16:28;;;;;;;14.27;8.80;;;;;;;16.45;100.00;99834.63;12194745;19;20013;-82
2023/09/28 02:20:31;;;;;;;13.65;8.77;;;;;;;16.40;100.00;99837.41;12198074;19;20033;-82
2023/09/28 02:24:32;;;;;;;14.07;9.18;;;;;;;16.37;100.00;99847.16;12179893;19;20014;-82
2023/09/28 02:28:34;;;;;;;15.25;10.13;;;;;;;16.36;100.00;99850.25;12198619;19;20017;-82
2023/09/28 02:32:39;;;;;;;16.70;10.10;;;;;;;16.35;100.00;99843.84;12204761;19;20007;-82
2023/09/28 02:36:42;;;;;;;17.40;10.45;;;;;;;16.33;100.00;99848.88;12180464;19;20025;-82
2023/09/28 02:40:44;;;;;;;17.77;10.23;;;;;;;16.31;100.00;99831.63;12188688;19;20014;-82
2023/09/28 02:44:46;;;;;;;18.52;11.32;;;;;;;16.29;100.00;99847.75;12197790;19;20007;-83
2023/09/28 02:48:48;;;;;;;18.50;10.85;;;;;;;16.27;100.00;99852.81;12181611;19;20075;-82
2023/09/28 02:52:52;;;;;;;17.73;10.45;;;;;;;16.17;100.00;99875.91;12201873;19;20007;-83
2023/09/28 02:56:54;;;;;;;15.48;10.77;;;;;;;16.10;100.00;99863.44;12190388;19;20002;-82
2023/09/28 03:00:56;;;;;;;13.95;10.20;;;;;;;16.06;100.00;99849.28;12198664;19;20011;-83
2023/09/28 03:04:58;;;;;;;18.80;10.90;;;;;;;16.04;100.00;99834.03;12199655;19;20006;-82
2023/09/28 03:09:00;;;;;;;17.63;10.57;;;;;;;15.98;100.00;99843.50;12174836;19;20018;-82
2023/09/28 03:13:02;;;;;;;16.92;10.45;;;;;;;15.94;100.00;99851.56;12237911;19;20010;-83
2023/09/28 03:17:04;;;;;;;16.17;10.45;;;;;;;15.92;100.00;99853.81;12234030;19;20046;-83
2023/09/28 03:21:09;;;;;;;15.00;9.32;;;;;;;15.89;100.00;99869.09;12200377;19;20006;-83
2023/09/28 03:25:18;;;;;;;14.85;10.27;;;;;;;15.91;100.00;99879.91;12250713;19;20014;-82
2023/09/28 03:29:20;;;;;;;16.17;10.70;;;;;;;15.89;100.00;99894.09;12230587;19;20007;-82
2023/09/28 03:33:22;;;;;;;16.67;10.75;;;;;;;15.85;100.00;99881.03;12194036;19;20150;-82
2023/09/28 03:37:24;;;;;;;17.15;10.07;;;;;;;15.84;100.00;99857.16;12209626;19;19999;-82
2023/09/28 03:41:27;;;;;;;17.45;9.32;;;;;;;15.87;100.00;99857.41;12218757;19;20011;-83
2023/09/28 03:45:28;;;;;;;12.55;8.80;;;;;;;15.92;100.00;99849.06;12192870;19;20515;-82
2023/09/28 03:49:30;;;;;;;17.23;9.38;;;;;;;15.97;100.00;99861.28;12213496;19;20010;-82
2023/09/28 03:53:38;;;;;;;20.73;9.50;;;;;;;15.97;100.00;99859.31;12216341;19;20033;-83
2023/09/28 03:57:42;;;;;;;12.95;8.98;;;;;;;15.96;100.00;99860.44;12186778;19;20002;-82
2023/09/28 04:01:44;;;;;;;18.50;9.60;;;;;;;15.93;100.00;99847.94;12209127;19;20010;-82
2023/09/28 04:05:46;;;;;;;15.98;9.27;;;;;;;15.97;100.00;99855.72;12212887;19;20014;-82
2023/09/28 04:09:48;;;;;;;16.85;10.27;;;;;;;15.99;100.00;99851.53;12186630;19;20010;-81
2023/09/28 04:13:50;;;;;;;16.63;10.30;;;;;;;15.99;100.00;99853.50;12208865;19;21499;-82
2023/09/28 04:17:52;;;;;;;12.67;8.43;;;;;;;15.94;100.00;99852.41;12208696;19;20007;-82
2023/09/28 04:21:54;;;;;;;15.25;9.23;;;;;;;15.86;100.00;99847.44;12187995;19;20263;-83
2023/09/28 04:25:56;;;;;;;16.23;9.25;;;;;;;15.79;100.00;99859.94;12204039;19;20082;-83
2023/09/28 04:29:58;;;;;;;13.48;8.65;;;;;;;15.71;100.00;99859.44;12187541;19;20011;-83
2023/09/28 04:33:59;;;;;;;10.73;8.52;;;;;;;15.68;100.00;99851.66;12211972;19;20014;-82
2023/09/28 04:38:02;;;;;;;16.65;9.05;;;;;;;15.65;100.00;99852.19;12206058;19;20019;-82
2023/09/28 04:42:04;;;;;;;13.68;7.97;;;;;;;15.65;100.00;99854.16;12186738;19;20074;-82
2023/09/28 04:46:07;;;;;;;17.25;8.20;;;;;;;15.60;100.00;99863.31;12204747;19;20010;-82
2023/09/28 04:50:09;;;;;;;10.00;7.13;;;;;;;15.60;100.00;99868.88;12209859;19;20034;-83
2023/09/28 04:54:11;;;;;;;13.20;7.80;;;;;;;15.65;100.00;99884.69;12181756;19;20028;-82
2023/09/28 04:58:13;;;;;;;16.67;11.07;;;;;;;15.70;100.00;99881.91;12202980;19;20010;-82
2023/09/28 05:02:15;;;;;;;12.70;8.23;;;;;;;15.68;100.00;99884.16;12200369;19;20528;-82
2023/09/28 05:06:16;;;;;;;14.38;8.70;;;;;;;15.67;100.00;99883.31;12179269;19;20401;-82
2023/09/28 05:10:18;;;;;;;11.45;8.32;;;;;;;15.68;100.00;99889.72;12204287;19;20041;-81
2023/09/28 05:14:24;;;;;;;14.48;8.18;;;;;;;15.64;100.00;99888.56;12201562;19;20010;-81
2023/09/28 05:18:26;;;;;;;13.48;8.57;;;;;;;15.65;100.00;99910.53;12179740;19;20026;-82
2023/09/28 05:22:28;;;;;;;13.20;8.95;;;;;;;15.68;100.00;99926.66;12200008;19;20024;-82
2023/09/28 05:26:30;;;;;;;14.77;8.77;;;;;;;15.71;100.00;99930.84;12194043;19;20109;-83
2023/09/28 05:30:32;;;;;;;11.60;8.07;;;;;;;15.74;100.00;99935.00;12168355;19;20171;-82
2023/09/28 05:34:34;;;;;;;11.55;8.75;;;;;;;15.76;100.00;99936.34;12193137;19;20015;-82
2023/09/28 05:38:36;;;;;;;14.75;10.35;;;;;;;15.78;100.00;99936.91;12191508;19;20009;-82
2023/09/28 05:42:37;;;;;;;13.82;8.93;;;;;;;15.80;100.00;99934.69;12177382;19;20038;-82
2023/09/28 05:46:40;;;;;;;14.10;9.57;;;;;;;15.80;100.00;99940.25;12194863;19;20010;-82
2023/09/28 05:50:41;;;;;;;12.80;7.80;;;;;;;15.79;100.00;99944.13;12194123;19;20042;-82
2023/09/28 05:54:43;;;;;;;13.80;9.02;;;;;;;15.75;100.00;99948.59;12175900;19;20018;-82
2023/09/28 05:58:45;;;;;;;14.38;9.68;;;;;;;15.72;100.00;99946.38;12194318;19;20089;-83
2023/09/28 06:02:47;;;;;;;13.83;9.50;;;;;;;15.71;100.00;99941.94;12200601;19;20021;-81
2023/09/28 06:06:50;;;;;;;15.90;10.65;;;;;;;15.73;100.00;99942.47;12170371;19;20516;-82
2023/09/28 06:10:52;;;;;;;16.10;10.38;;;;;;;15.78;100.00;99948.03;12194922;19;20003;-81
2023/09/28 06:15:11;;;;;;;13.75;9.60;;;;;;;15.86;100.00;99933.56;12177729;19;20011;-82
2023/09/28 06:19:13;;;;;;;14.55;9.88;;;;;;;16.00;100.00;99946.84;12208366;19;20010;-82
2023/09/28 06:23:15;;;;;;;16.03;9.53;;;;;;;16.07;100.00;99944.63;12209091;19;20018;-82
2023/09/28 06:27:17;;;;;;;15.40;11.05;;;;;;;16.12;100.00;99950.16;12188196;19;20007;-82
2023/09/28 06:31:20;;;;;;;;;;;;;;;16.14;100.00;99959.03;12219850;19;20010;-82
2023/09/28 06:35:21;;;;;;;13.02;7.90;;;;;;;16.18;100.00;99954.56;12230104;19;20007;-82
2023/09/28 06:39:23;;;;;;;14.63;10.43;;;;;;;16.24;100.00;99950.69;12211923;19;20006;-85
2023/09/28 06:43:25;;;;;;;15.35;9.20;;;;;;;16.25;100.00;99952.34;12219861;19;20019;-84
2023/09/28 06:47:27;;;;;;;20.92;10.77;;;;;;;16.25;100.00;99957.06;12199325;19;20007;-84
2023/09/28 06:51:49;;;;;;;14.73;9.75;;;;;;;16.32;100.00;99949.25;12208441;19;20037;-84
2023/09/28 06:55:52;;;;;;;15.50;9.38;;;;;;;16.40;100.00;99957.00;12223207;19;20007;-84
2023/09/28 07:00:16;;;;;;;15.73;9.05;;;;;;;16.47;100.00;99965.88;12205373;19;20016;-84
2023/09/28 07:04:18;;;;;;;13.57;9.27;;;;;;;16.57;100.00;99959.44;12222546;19;20014;-84
2023/09/28 07:08:20;;;;;;;14.50;8.75;;;;;;;16.74;100.00;99961.84;12221605;19;20030;-84
2023/09/28 07:12:23;;;;;;;14.15;8.45;;;;;;;16.91;100.00;99956.75;12200635;19;20054;-84
2023/09/28 07:16:24;;;;;;;12.15;8.35;;;;;;;17.10;100.00;99968.03;12226692;19;20014;-84
2023/09/28 07:20:27;;;;;;;14.63;10.15;;;;;;;17.26;100.00;99963.19;12225137;19;20014;-84
2023/09/28 07:24:33;;;;;;;12.95;8.57;;;;;;;17.42;100.00;99966.69;12200061;19;20017;-84
2023/09/28 07:28:34;;;;;;;13.00;7.63;;;;;;;17.61;100.00;99966.78;12220168;19;20006;-84
2023/09/28 07:32:37;;;;;;;9.05;6.13;;;;;;;17.78;100.00;99983.94;12225914;19;20393;-84
2023/09/28 07:36:39;;;;;;;9.40;5.70;;;;;;;18.02;100.00;99992.31;12199572;19;20007;-84
2023/09/28 07:40:41;;;;;;;8.75;4.57;;;;;;;18.31;100.00;100009.03;12221925;19;20016;-84
2023/09/28 07:44:48;;;;;;;8.02;5.28;;;;;;;18.65;100.00;100005.28;12226039;19;20007;-84
2023/09/28 07:48:50;;;;;;;9.38;5.18;;;;;;;18.90;100.00;100016.13;12197034;19;20026;-84
2023/09/28 07:52:52;;;;;;;7.80;5.03;;;;;;;19.24;100.00;100011.44;12221900;19;20045;-84
2023/09/28 07:56:55;;;;;;;8.65;4.88;;;;;;;19.56;100.00;100010.66;12214178;19;20058;-84
2023/09/28 08:00:57;;;;;;;8.27;4.53;;;;;;;19.84;100.00;100011.63;12221255;19;20003;-84
2023/09/28 08:04:59;;;;;;;9.05;5.13;;;;;;;20.09;100.00;99993.53;12220026;19;20048;-84
2023/09/28 08:09:01;;;;;;;9.80;4.60;;;;;;;20.26;100.00;99998.53;12197694;19;20038;-84
2023/09/28 08:13:03;;;;;;;9.45;5.22;;;;;;;20.55;100.00;99997.41;12220223;19;20006;-84
2023/09/28 08:17:06;;;;;;;7.43;4.78;;;;;;;20.87;100.00;100008.47;12222999;19;20449;-84
2023/09/28 08:21:09;;;;;;;8.70;4.70;;;;;;;21.18;96.52;100007.78;12194775;19;20006;-85
2023/09/28 08:25:12;;;;;;;7.57;4.78;;;;;;;21.37;92.97;100002.88;12218790;19;20010;-85
2023/09/28 08:29:15;;;;;;;14.90;5.38;;;;;;;21.48;91.92;100008.25;12218216;19;20010;-84
2023/09/28 08:33:17;;;;;;;8.98;5.07;;;;;;;21.55;93.03;100019.84;12202264;19;20014;-84
2023/09/28 08:37:19;;;;;;;8.50;5.03;;;;;;;21.69;93.15;100029.00;12212174;19;20095;-85
2023/09/28 08:41:31;;;;;;;10.85;5.18;;;;;;;21.74;90.42;100023.25;12213270;19;20046;-85
2023/09/28 08:45:37;;;;;;;11.20;5.65;;;;;;;21.90;90.66;100025.69;12190631;19;20022;-84
2023/09/28 08:49:39;;;;;;;6.28;4.38;;;;;;;22.05;90.12;100020.50;12215939;19;20756;-84
2023/09/28 08:53:43;;;;;;;;;;;;;;;22.12;82.38;100017.22;12212112;19;20026;-85
2023/09/28 08:57:46;;;;;;;8.35;4.53;;;;;;;22.29;83.54;100022.13;12175315;19;19915;-85
2023/09/28 09:01:48;;;;;;;6.97;4.55;;;;;;;22.45;84.22;100030.94;12195767;19;20014;-85
2023/09/28 09:05:52;;;;;;;8.13;4.87;;;;;;;22.69;82.94;100041.78;12199565;19;20010;-85
2023/09/28 09:09:57;;;;;;;8.63;4.88;;;;;;;22.85;81.59;100039.38;12177766;19;20270;-85
2023/09/28 09:13:59;;;;;;;7.78;4.70;;;;;;;22.95;79.60;100045.50;12198743;19;20013;-85
2023/09/28 09:18:03;;;;;;;8.27;5.05;;;;;;;23.20;78.07;100045.88;12175707;19;20078;-85
2023/09/28 09:22:05;;;;;;;9.57;4.55;;;;;;;23.28;77.37;100052.69;12192114;19;20038;-84
2023/09/28 09:26:19;;;;;;;10.80;5.38;;;;;;;23.45;74.34;100040.63;12205778;19;20031;-84
2023/09/28 09:30:23;;;;;;;6.93;4.55;;;;;;;23.63;74.17;100033.84;12184181;19;20033;-85
2023/09/28 09:34:24;;;;;;;8.50;4.32;;;;;;;23.64;75.55;100021.41;12207005;19;20011;-85
2023/09/28 09:38:31;;;;;;;12.93;4.70;;;;;;;23.76;73.57;100032.84;12211080;19;20051;-84
2023/09/28 09:42:33;;;;;;;7.68;4.53;;;;;;;23.89;73.27;100031.03;12183576;19;20532;-84
2023/09/28 09:46:35;;;;;;;9.77;5.07;;;;;;;23.98;72.91;100026.22;12209233;19;20014;-85
2023/09/28 09:50:38;;;;;;;9.52;5.00;;;;;;;24.13;71.79;100029.66;12219422;19;20331;-85
2023/09/28 09:54:42;;;;;;;6.35;4.45;;;;;;;24.24;70.69;100025.28;12201074;19;20063;-85
2023/09/28 09:58:49;;;;;;;7.70;5.00;;;;;;;24.37;69.84;100029.06;12217347;19;20014;-84
2023/09/28 10:02:53;;;;;;;7.80;4.22;;;;;;;24.53;67.65;100030.19;12228852;19;20007;-85
2023/09/28 10:06:58;;;;;;;6.68;4.40;;;;;;;24.60;68.15;100024.00;12201437;19;20007;-85
2023/09/28 10:11:01;;;;;;;6.75;4.15;;;;;;;24.69;68.56;100031.28;12222091;19;20006;-85
2023/09/28 10:15:04;;;;;;;8.30;4.00;;;;;;;24.92;65.27;100026.16;12200238;19;20006;-85
2023/09/28 10:19:08;;;;;;;6.05;4.03;;;;;;;25.04;64.84;100016.97;12203038;19;20110;-83
2023/09/28 10:23:24;;;;;;;8.00;3.85;;;;;;;25.05;62.72;100015.81;12208694;19;20010;-84
2023/09/28 10:27:26;;;;;;;8.32;4.15;;;;;;;25.25;62.70;100014.19;12184603;19;20011;-84
2023/09/28 10:31:29;;;;;;;5.82;4.03;;;;;;;25.41;61.96;100009.59;12221839;19;20027;-83
2023/09/28 10:36:10;;;;;;;7.70;3.75;;;;;;;25.52;59.78;100009.16;12226017;19;20427;-83
2023/09/28 10:40:12;;;;;;;7.70;3.77;;;;;;;25.63;60.62;100005.56;12201648;19;20030;-83
2023/09/28 10:44:21;;;;;;;7.50;4.10;;;;;;;25.84;59.30;100013.22;12222561;19;20614;-83
2023/09/28 10:48:23;;;;;;;8.48;3.28;;;;;;;25.99;59.12;100012.53;12199017;19;20476;-84
2023/09/28 10:52:25;;;;;;;8.45;3.63;;;;;;;25.89;58.43;100011.00;12218848;19;20003;-83
2023/09/28 10:56:27;;;;;;;7.82;4.00;;;;;;;25.92;57.87;100003.81;12218572;19;20391;-84
2023/09/28 11:00:36;;;;;;;6.00;3.25;;;;;;;26.02;58.37;100011.03;12193232;19;20026;-82
2023/09/28 11:04:39;;;;;;;6.28;4.07;;;;;;;26.24;56.57;100021.91;12222722;19;20037;-83
2023/09/28 11:08:53;;;;;;;7.30;3.95;;;;;;;26.27;56.43;100023.22;12218973;19;20023;-84
2023/09/28 11:12:55;;;;;;;6.60;3.75;;;;;;;26.45;55.36;100012.53;12195216;19;20010;-82
2023/09/28 11:16:57;;;;;;;7.20;3.72;;;;;;;26.62;54.93;100012.31;12219007;19;20011;-84
2023/09/28 11:20:59;;;;;;;6.82;3.55;;;;;;;26.66;53.44;100006.78;12197028;19;20031;-83
2023/09/28 11:25:01;;;;;;;;;;;;;;;26.83;53.71;100000.91;12211228;19;20564;-83
2023/09/28 11:29:04;;;;;;;6.50;3.67;;;;;;;27.12;52.63;99994.13;12213464;19;19996;-83
2023/09/28 11:33:06;;;;;;;8.43;4.22;;;;;;;27.43;51.78;99990.66;12195485;19;20031;-83
2023/09/28 11:37:10;;;;;;;7.18;4.20;;;;;;;27.77;50.03;99993.22;12214775;19;20034;-83
2023/09/28 11:41:16;;;;;;;5.85;3.65;;;;;;;28.14;49.23;99986.19;12214572;19;20002;-83
2023/09/28 11:45:18;;;;;;;4.57;2.90;;;;;;;28.40;49.78;99971.47;12188569;19;20520;-83
2023/09/28 11:49:20;;;;;;;;;;;;;;;28.84;48.55;99962.84;12216026;19;20047;-84
2023/09/28 11:53:22;;;;;;;;;;;;;;;29.46;47.97;99953.69;12218336;19;19978;-83
2023/09/28 11:57:25;;;;;;;6.13;3.42;;;;;;;29.81;46.25;99950.78;12195832;19;19910;-83
2023/09/28 12:01:27;;;;;;;5.68;3.10;;;;;;;30.04;43.70;99952.78;12206333;19;20003;-83
2023/09/28 12:05:31;;;;;;;4.32;3.00;;;;;;;30.43;42.44;99939.31;12212891;19;20002;-83
2023/09/28 12:09:32;;;;;;;9.90;3.83;;;;;;;30.72;42.00;99946.25;12186870;19;20018;-81
2023/09/28 12:13:34;;;;;;;;;;;;;;;30.88;41.77;99949.78;12214749;19;20014;-83
2023/09/28 12:17:42;;;;;;;4.38;3.45;;;;;;;31.25;39.42;99951.91;12217246;19;19921;-83
2023/09/28 12:21:45;;;;;;;6.95;4.00;;;;;;;31.88;39.51;99938.03;12193365;19;20078;-84
2023/09/28 12:25:48;;;;;;;6.20;4.10;;;;;;;31.97;37.61;99939.38;12211559;19;20003;-84
2023/09/28 12:29:50;;;;;;;9.18;4.63;;;;;;;32.25;38.42;99940.88;12211162;19;20011;-84
2023/09/28 12:33:54;;;;;;;8.75;3.85;;;;;;;32.27;36.79;99929.06;12177964;19;20023;-84
2023/09/28 12:37:56;;;;;;;5.60;4.18;;;;;;;32.26;37.32;99938.84;12205289;19;20018;-84
2023/09/28 12:41:58;;;;;;;6.60;4.40;;;;;;;32.11;37.54;99935.84;12172370;19;20019;-84
2023/09/28 12:46:00;;;;;;;7.82;4.18;;;;;;;32.31;36.99;99938.47;12196066;19;20002;-84
2023/09/28 12:50:03;;;;;;;6.28;3.75;;;;;;;32.43;38.02;99926.75;12198772;19;20015;-83
2023/09/28 12:54:05;;;;;;;5.43;4.15;;;;;;;32.66;37.74;99904.56;12181931;19;20006;-83
2023/09/28 12:58:07;;;;;;;7.93;4.07;;;;;;;32.78;36.60;99913.97;12194277;19;20026;-83
2023/09/28 13:02:09;;;;;;;6.10;4.22;;;;;;;32.35;36.69;99910.81;12195615;19;20504;-84
2023/09/28 13:06:12;;;;;;;4.72;3.47;;;;;;;31.59;38.25;99891.31;12185745;19;20097;-83
2023/09/28 13:10:24;;;;;;;9.30;3.88;;;;;;;30.88;38.71;99901.44;12196188;19;20003;-84
2023/09/28 13:14:26;;;;;;;8.70;3.88;;;;;;;30.46;39.64;99890.22;12191391;19;20579;-84
2023/09/28 13:18:28;;;;;;;5.20;3.40;;;;;;;30.22;40.18;99885.75;12177560;19;20030;-83
2023/09/28 13:22:30;;;;;;;6.10;3.42;;;;;;;29.92;40.31;99894.97;12198213;19;20062;-83
2023/09/28 13:26:33;;;;;;;8.00;3.10;;;;;;;29.59;41.15;99889.03;12198997;19;20022;-83
2023/09/28 13:30:38;;;;;;;8.00;3.72;;;;;;;29.23;40.88;99891.19;12170562;19;19999;-82
2023/09/28 13:34:41;;;;;;;7.40;3.25;;;;;;;28.96;41.17;99891.00;12196113;19;20026;-83
2023/09/28 13:38:44;;;;;;;7.55;3.40;;;;;;;28.68;42.70;99896.88;12193636;19;20022;-84
2023/09/28 13:42:45;;;;;;;5.85;3.30;;;;;;;28.52;43.07;99891.22;12183471;19;20021;-83
2023/09/28 13:46:47;;;;;;;4.55;2.90;;;;;;;28.45;43.58;99890.25;12208895;19;20015;-83
2023/09/28 13:50:49;;;;;;;5.32;3.05;;;;;;;28.40;44.45;99896.97;12197202;19;20014;-83
2023/09/28 13:54:53;;;;;;;5.15;3.13;;;;;;;28.29;44.52;99884.53;12175946;19;21444;-82
2023/09/28 13:58:54;;;;;;;7.40;3.53;;;;;;;28.18;44.68;99879.44;12194869;19;19999;-82
2023/09/28 14:02:58;;;;;;;6.35;3.05;;;;;;;28.13;45.29;99882.56;12169585;19;20018;-82
2023/09/28 14:07:01;;;;;;;11.07;4.20;;;;;;;28.21;46.70;99879.91;12190512;19;20003;-82
2023/09/28 14:11:08;;;;;;;;;;;;;;;28.10;45.23;99876.81;12194869;19;20007;-82
2023/09/28 14:15:11;;;;;;;6.82;3.55;;;;;;;28.11;45.66;99878.44;12176345;19;19914;-82
2023/09/28 14:19:15;;;;;;;4.90;2.90;;;;;;;28.05;45.95;99877.94;12197921;19;20014;-82
2023/09/28 14:28:17;;;;;;;5.75;3.17;;;;;;;27.86;45.91;99878.63;12188757;19;20034;-81
2023/09/28 14:32:55;;;;;;;5.47;3.35;;;;;;;27.79;46.50;99871.97;12182194;19;20003;-81
2023/09/28 14:36:57;;;;;;;7.90;3.28;;;;;;;27.91;46.22;99861.38;12171652;19;20082;-81
2023/09/28 14:40:59;;;;;;;6.22;3.22;;;;;;;27.91;44.93;99858.53;12213295;19;20399;-81
2023/09/28 14:45:01;;;;;;;5.68;3.50;;;;;;;27.96;45.23;99854.59;12184271;19;20011;-81
2023/09/28 14:49:03;;;;;;;5.93;3.22;;;;;;;28.04;45.43;99855.63;12206055;19;20648;-82
2023/09/28 14:53:08;;;;;;;10.20;3.70;;;;;;;27.97;46.95;99855.44;12204738;19;20024;-82
2023/09/28 14:57:13;;;;;;;5.35;3.05;;;;;;;27.93;47.80;99855.34;12181910;19;20561;-82
2023/09/28 15:01:16;;;;;;;6.38;3.15;;;;;;;27.89;48.41;99845.94;12201897;19;20010;-82
2023/09/28 15:05:18;;;;;;;6.35;2.83;;;;;;;27.80;48.23;99850.97;12201038;19;20104;-82
2023/09/28 15:09:19;;;;;;;5.40;3.05;;;;;;;27.78;47.63;99856.13;12183632;19;20041;-82
2023/09/28 15:13:21;;;;;;;5.88;3.20;;;;;;;27.74;47.73;99858.88;12207028;19;20500;-83
2023/09/28 15:17:23;;;;;;;4.63;2.90;;;;;;;27.65;48.32;99856.22;12205685;19;20045;-82
2023/09/28 15:21:26;;;;;;;7.65;3.58;;;;;;;27.59;48.63;99842.69;12196616;19;20093;-82
2023/09/28 15:25:28;;;;;;;6.25;3.08;;;;;;;27.59;48.88;99843.53;12238838;19;20014;-83
2023/09/28 15:29:30;;;;;;;6.45;3.40;;;;;;;27.59;49.02;99848.38;12235462;19;20010;-82
2023/09/28 15:33:32;;;;;;;5.03;3.22;;;;;;;27.55;50.11;99834.13;12200476;19;20018;-82
2023/09/28 15:37:34;;;;;;;8.43;3.60;;;;;;;27.37;50.42;99827.16;12211035;19;20011;-82
2023/09/28 15:41:40;;;;;;;5.88;2.90;;;;;;;27.13;52.21;99834.56;12214541;19;20022;-83
2023/09/28 15:45:46;;;;;;;6.22;3.17;;;;;;;26.91;53.98;99833.09;12190078;19;20007;-82
2023/09/28 15:49:48;;;;;;;6.55;3.00;;;;;;;26.73;57.05;99832.59;12208876;19;20470;-84
2023/09/28 16:04:45;;;;;;;6.20;2.72;;;;;;;25.86;64.28;99839.50;12211829;19;19917;-83
2023/09/28 16:09:19;;;;;;;10.02;4.13;;;;;;;25.53;65.72;99841.53;12210837;19;20047;-83
2023/09/28 16:13:20;;;;;;;5.25;3.22;;;;;;;25.33;67.45;99844.06;12209873;19;21461;-83
2023/09/28 16:17:22;;;;;;;4.97;3.17;;;;;;;25.15;69.09;99851.06;12211948;19;20010;-83
2023/09/28 16:21:24;;;;;;;6.43;3.58;;;;;;;24.98;69.83;99844.38;12189623;19;20013;-83
2023/09/28 16:25:26;;;;;;;5.40;3.05;;;;;;;24.79;72.52;99847.72;12210368;19;20003;-83
2023/09/28 16:29:28;;;;;;;8.13;3.13;;;;;;;24.64;74.02;99855.97;12210702;19;20045;-83
2023/09/28 16:33:30;;;;;;;4.75;3.33;;;;;;;24.45;75.50;99851.63;12191095;19;20033;-83
2023/09/28 16:37:32;;;;;;;7.25;3.05;;;;;;;24.26;76.83;99856.84;12207248;19;20681;-83
2023/09/28 16:41:34;;;;;;;5.30;3.83;;;;;;;24.05;78.35;99849.19;12211824;19;20480;-82
2023/09/28 16:45:35;;;;;;;7.25;3.28;;;;;;;23.86;79.82;99848.78;12190589;19;20456;-83
2023/09/28 16:49:37;;;;;;;5.40;3.27;;;;;;;23.63;81.13;99851.81;12208142;19;20470;-83
2023/09/28 16:53:39;;;;;;;7.43;3.20;;;;;;;23.46;82.61;99851.88;12217568;19;20013;-83
2023/09/28 16:57:41;;;;;;;9.32;3.47;;;;;;;23.27;83.98;99845.81;12194324;19;20009;-83
2023/09/28 17:01:43;;;;;;;7.03;3.07;;;;;;;23.07;83.79;99844.50;12195625;19;20015;-82
2023/09/28 17:05:45;;;;;;;5.87;3.73;;;;;;;22.91;84.32;99846.97;12192332;19;20299;-83
2023/09/28 17:09:47;;;;;;;6.50;3.47;;;;;;;22.74;84.94;99840.19;12180425;19;20010;-83
2023/09/28 17:13:49;;;;;;;6.20;3.40;;;;;;;22.60;85.98;99847.97;12201194;19;20251;-83
2023/09/28 17:17:50;;;;;;;9.40;4.03;;;;;;;22.43;86.72;99847.97;12202149;19;20035;-83
2023/09/28 17:21:58;;;;;;;9.15;4.18;;;;;;;22.29;87.12;99843.31;12176873;19;20002;-82
2023/09/28 17:26:00;;;;;;;5.47;3.60;;;;;;;22.17;87.39;99845.94;12199992;19;20023;-83
2023/09/28 17:30:04;;;;;;;6.30;3.00;;;;;;;22.07;87.82;99852.66;12174871;19;20014;-83
2023/09/28 17:34:06;;;;;;;8.38;3.22;;;;;;;21.97;88.01;99852.09;12197241;19;20518;-82
2023/09/28 17:38:08;;;;;;;7.37;3.40;;;;;;;21.88;87.64;99859.66;12195533;19;20498;-83
2023/09/28 17:42:10;;;;;;;6.73;3.10;;;;;;;21.81;87.55;99860.13;12173146;19;20517;-82
2023/09/28 17:46:11;;;;;;;6.43;3.27;;;;;;;21.72;87.93;99854.50;12198100;19;20085;-82
2023/09/28 17:50:14;;;;;;;5.27;3.10;;;;;;;21.65;88.32;99856.91;12195528;19;20568;-82
2023/09/28 17:54:16;;;;;;;;;;;;;;;21.54;88.32;99858.38;12177666;19;20025;-83
2023/09/28 17:58:18;;;;;;;5.75;3.55;;;;;;;21.49;87.80;99861.31;12194035;19;19967;-83
2023/09/28 18:02:20;;;;;;;8.47;3.13;;;;;;;21.41;88.10;99856.47;12191115;19;20003;-82
2023/09/28 18:06:21;;;;;;;6.88;3.08;;;;;;;21.35;89.04;99861.34;12169201;19;20441;-83
2023/09/28 18:10:23;;;;;;;8.60;3.97;;;;;;;21.28;89.40;99870.22;12194355;19;21792;-83
2023/09/28 18:14:25;;;;;;;7.20;4.00;;;;;;;21.21;90.28;99880.22;12206043;19;20083;-83
2023/09/28 18:18:27;;;;;;;6.30;3.10;;;;;;;21.11;90.75;99893.34;12186591;19;20003;-83
2023/09/28 18:22:30;;;;;;;6.13;3.30;;;;;;;21.02;91.44;99889.63;12209199;19;20006;-83
2023/09/28 18:26:33;;;;;;;8.52;3.00;;;;;;;20.98;91.14;99893.41;12204436;19;20014;-83
2023/09/28 18:30:35;;;;;;;7.13;3.60;;;;;;;20.93;90.38;99899.94;12182490;19;20006;-83
2023/09/28 18:34:37;;;;;;;5.97;3.17;;;;;;;20.90;91.34;99904.22;12206545;19;20465;-83
2023/09/28 18:38:39;;;;;;;6.37;3.53;;;;;;;20.86;90.53;99897.59;12208774;19;20275;-83
2023/09/28 18:42:41;;;;;;;5.45;3.50;;;;;;;20.85;89.89;99901.56;12186690;19;20010;-83
2023/09/28 18:46:43;;;;;;;7.03;3.27;;;;;;;20.87;89.44;99915.22;12209922;19;20019;-83
2023/09/28 18:50:45;;;;;;;6.85;3.10;;;;;;;20.86;89.41;99906.00;12210243;19;20382;-82
2023/09/28 18:54:46;;;;;;;10.13;3.17;;;;;;;20.84;89.20;99911.06;12189438;19;20010;-82